createdAt,value
2019-04-25T00:10:48.128Z,23.00
2019-04-25T00:23:55.318Z,23.00
2019-04-25T00:37:02.607Z,23.00
2019-04-25T00:50:09.720Z,23.00
2019-04-25T01:03:16.890Z,23.00
2019-04-25T01:42:33.756Z,23.00
2019-04-25T01:55:51.048Z,23.00
2019-04-25T02:08:48.010Z,23.00
2019-04-25T02:21:55.607Z,23.00
2019-04-25T02:48:06.865Z,23.00
2019-04-25T03:01:19.530Z,23.00
2019-04-25T03:14:19.835Z,23.00
2019-04-25T03:27:27.021Z,23.00
2019-04-25T03:40:34.195Z,23.00
2019-04-25T03:53:41.431Z,23.00
2019-04-25T04:07:07.352Z,23.00
2019-04-25T04:20:27.972Z,23.00
2019-04-25T04:33:50.817Z,23.00
2019-04-25T04:47:14.153Z,23.00
2019-04-25T05:00:36.539Z,22.80
2019-04-25T05:13:59.283Z,22.60
2019-04-25T05:27:32.263Z,22.60
2019-04-25T05:40:45.009Z,22.40
2019-04-25T05:54:07.699Z,22.10
2019-04-25T06:07:30.527Z,21.90
2019-04-25T06:33:54.934Z,21.80
2019-04-25T06:47:03.344Z,21.90
2019-04-25T07:00:09.344Z,22.10
2019-04-25T07:13:16.541Z,22.10
2019-04-25T07:52:34.616Z,22.20
2019-04-25T08:05:40.780Z,22.20
2019-04-25T08:18:47.962Z,22.50
2019-04-25T08:31:55.135Z,22.50
2019-04-25T08:45:03.656Z,22.50
2019-04-25T08:58:09.626Z,22.50
2019-04-25T09:11:34.837Z,22.50
2019-04-25T09:24:56.336Z,22.50
2019-04-25T09:38:18.964Z,22.50
2019-04-25T09:51:42.450Z,22.50
2019-04-25T10:18:06.178Z,22.80
2019-04-25T10:31:13.726Z,22.80
2019-04-25T10:44:20.729Z,22.80
2019-04-25T10:57:27.941Z,22.80
2019-04-25T11:10:35.104Z,22.90
2019-04-25T11:23:44.268Z,22.90
2019-04-25T11:37:06.073Z,22.90
2019-04-25T11:50:28.837Z,23.00
2019-04-25T12:16:55.743Z,23.00
2019-04-25T12:30:00.475Z,23.00
2019-04-25T12:43:07.620Z,22.80
2019-04-25T12:56:14.793Z,23.00
2019-04-25T13:09:21.996Z,23.00
2019-04-25T13:22:29.172Z,23.00
2019-04-25T13:35:54.307Z,23.00
2019-04-25T13:49:16.008Z,23.10
2019-04-25T14:02:38.669Z,23.10
2019-04-25T14:29:04.119Z,23.30
2019-04-25T14:42:10.444Z,23.40
2019-04-25T14:55:17.743Z,23.30
2019-04-25T15:08:25.027Z,23.40
2019-04-25T15:21:32.252Z,23.40
2019-04-25T15:34:39.422Z,23.40
2019-04-25T15:48:02.949Z,23.50
2019-04-25T16:14:33.334Z,23.50
2019-04-25T16:27:54.996Z,23.50
2019-04-25T16:41:17.865Z,23.50
2019-04-25T16:54:41.436Z,23.40
2019-04-25T17:08:03.478Z,23.50
2019-04-25T17:21:26.274Z,23.50
2019-04-25T17:34:49.072Z,23.50
2019-04-25T17:48:11.915Z,23.40
2019-04-25T18:01:34.803Z,23.40
2019-04-25T18:14:57.518Z,23.40
2019-04-25T18:28:20.367Z,23.30
2019-04-25T18:41:43.966Z,23.20
2019-04-25T18:55:05.999Z,23.10
2019-04-25T19:08:28.788Z,23.10
2019-04-25T19:21:51.976Z,23.10
2019-04-25T19:35:14.387Z,23.10
2019-04-25T19:48:37.296Z,23.10
2019-04-25T20:02:00.080Z,23.10
2019-04-25T20:15:22.854Z,23.20
2019-04-25T20:28:46.173Z,23.10
2019-04-25T20:42:08.488Z,23.10
2019-04-25T20:55:31.282Z,23.10
2019-04-25T21:08:54.107Z,23.20
2019-04-25T21:22:16.916Z,23.20
2019-04-25T21:35:39.740Z,23.20
2019-04-25T21:49:03.130Z,23.20
2019-04-25T22:02:25.419Z,23.20
2019-04-25T22:28:49.755Z,23.20
2019-04-25T22:41:56.959Z,23.20
2019-04-25T22:55:04.255Z,23.20
2019-04-25T23:08:11.445Z,23.20
